Terminal Aerodrome Forecast
Issued by NWS

Home | Current Version | Previous Version | Text Only | Print | Product List | Glossary On
Versions: 1 2 3 4 5 6 7 8 9 10 11 12 13 14 15 16 17
000
FTUS43 KILX 240500
TAFBMI
TAF
KBMI 240520Z 2406/2506 09008KT P6SM FEW110
     FM241500 14019G30KT P6SM BKN090
     FM242000 17018G28KT P6SM VCSH OVC060
     FM250000 15016G26KT 4SM -RA VCTS OVC035CB=

USA.gov is the U.S. government's official web portal to all federal, state and local government web resources and services.